createdAt,value
2022-10-23T00:01:51.550Z,6.22
2022-10-23T00:04:22.933Z,6.07
2022-10-23T00:06:53.250Z,6.47
2022-10-23T00:09:24.297Z,6.38
2022-10-23T00:11:54.965Z,6.32
2022-10-23T00:14:25.696Z,5.70
2022-10-23T00:16:55.939Z,5.35
2022-10-23T00:19:26.353Z,5.50
2022-10-23T00:21:56.731Z,5.43
2022-10-23T00:24:27.661Z,5.22
2022-10-23T00:26:57.740Z,4.60
2022-10-23T00:29:29.326Z,4.93
2022-10-23T00:32:00.681Z,4.47
2022-10-23T00:34:30.981Z,3.83
2022-10-23T00:37:03.036Z,4.00
2022-10-23T00:39:34.225Z,3.78
2022-10-23T00:42:04.633Z,4.63
2022-10-23T00:44:34.875Z,4.50
2022-10-23T00:47:04.973Z,3.88
2022-10-23T00:49:35.588Z,4.05
2022-10-23T00:52:10.495Z,4.50
2022-10-23T00:54:44.287Z,3.65
2022-10-23T00:57:14.898Z,4.38
2022-10-23T00:59:44.987Z,4.05
2022-10-23T01:02:15.470Z,4.13
2022-10-23T01:04:45.642Z,4.38
2022-10-23T01:07:20.905Z,5.25
2022-10-23T01:10:26.686Z,4.22
2022-10-23T01:13:10.821Z,5.28
2022-10-23T01:15:47.584Z,4.28
2022-10-23T01:18:20.313Z,4.80
2022-10-23T01:20:55.337Z,4.10
2022-10-23T01:23:44.594Z,4.93
2022-10-23T01:26:32.877Z,4.78
2022-10-23T01:29:13.976Z,4.95
2022-10-23T01:31:55.300Z,4.25
2022-10-23T01:34:26.381Z,4.15
2022-10-23T01:36:56.465Z,3.80
2022-10-23T01:39:28.546Z,4.05
2022-10-23T01:42:06.505Z,4.32
2022-10-23T01:44:38.238Z,4.05
2022-10-23T01:47:08.550Z,4.38
2022-10-23T01:49:51.228Z,3.53
2022-10-23T01:52:28.552Z,3.95
2022-10-23T01:55:00.136Z,4.05
2022-10-23T01:57:32.547Z,4.03
2022-10-23T02:00:05.236Z,4.20
2022-10-23T02:02:38.458Z,4.35
2022-10-23T02:05:09.438Z,4.72
2022-10-23T02:07:40.380Z,5.03
2022-10-23T02:10:10.989Z,4.00
2022-10-23T02:12:57.445Z,4.07
2022-10-23T02:15:41.954Z,4.75
2022-10-23T02:18:27.493Z,4.75
2022-10-23T02:21:23.709Z,4.10
2022-10-23T02:24:05.685Z,4.07
2022-10-23T02:26:44.043Z,4.22
2022-10-23T02:29:27.895Z,4.05
2022-10-23T02:32:00.570Z,4.00
2022-10-23T02:34:30.761Z,3.35
2022-10-23T02:37:00.969Z,3.67
2022-10-23T02:39:31.551Z,3.97
2022-10-23T02:42:18.447Z,4.28
2022-10-23T02:45:11.632Z,3.75
2022-10-23T02:47:42.306Z,3.13
2022-10-23T02:50:12.535Z,3.20
2022-10-23T02:52:59.221Z,4.20
2022-10-23T02:56:01.900Z,4.10
2022-10-23T03:01:10.905Z,3.97
2022-10-23T03:03:45.056Z,3.08
2022-10-23T03:06:15.891Z,3.38
2022-10-23T03:08:56.223Z,4.00
2022-10-23T03:11:28.052Z,3.55
2022-10-23T03:13:58.656Z,4.03
2022-10-23T03:16:29.178Z,3.40
2022-10-23T03:19:00.217Z,4.03
2022-10-23T03:21:30.682Z,3.50
2022-10-23T03:24:00.738Z,3.33
2022-10-23T03:26:37.525Z,3.08
2022-10-23T03:29:08.069Z,3.20
2022-10-23T03:31:44.244Z,3.97
2022-10-23T03:34:16.100Z,3.30
2022-10-23T03:36:46.788Z,3.08
2022-10-23T03:39:17.311Z,3.35
2022-10-23T03:41:47.414Z,3.15
2022-10-23T03:44:18.935Z,3.40
2022-10-23T03:46:49.619Z,3.00
2022-10-23T03:49:19.703Z,3.15
2022-10-23T03:51:53.863Z,3.30
2022-10-23T03:54:24.825Z,2.63
2022-10-23T03:56:57.496Z,2.83
2022-10-23T03:59:29.357Z,2.92
2022-10-23T04:02:01.434Z,2.90
2022-10-23T04:04:32.101Z,2.53
2022-10-23T04:07:02.995Z,2.65
2022-10-23T04:09:33.203Z,2.10
2022-10-23T04:12:03.217Z,2.22
2022-10-23T04:14:33.337Z,3.13
2022-10-23T04:17:03.386Z,2.35
2022-10-23T04:19:33.598Z,2.60
2022-10-23T04:22:03.632Z,2.42
2022-10-23T04:24:34.622Z,2.55
2022-10-23T04:27:05.775Z,2.30
2022-10-23T04:29:35.953Z,3.05
2022-10-23T04:32:06.008Z,2.75
2022-10-23T04:34:36.095Z,2.83
2022-10-23T04:37:07.003Z,3.20
2022-10-23T04:39:37.236Z,2.42
2022-10-23T04:42:07.314Z,2.97
2022-10-23T04:44:38.076Z,2.45
2022-10-23T04:47:08.788Z,3.15
2022-10-23T04:49:48.154Z,3.72
2022-10-23T04:52:44.550Z,3.55
2022-10-23T04:55:32.872Z,3.92
2022-10-23T04:58:19.379Z,4.72
2022-10-23T05:00:49.641Z,4.05
2022-10-23T05:03:25.968Z,4.55
2022-10-23T05:05:56.579Z,4.50
2022-10-23T05:08:46.903Z,4.55
2022-10-23T05:11:17.084Z,4.50
2022-10-23T05:13:50.453Z,4.50
2022-10-23T05:16:25.546Z,5.05
2022-10-23T05:18:56.117Z,4.60
2022-10-23T05:21:27.652Z,5.15
2022-10-23T05:26:33.494Z,4.03
2022-10-23T05:29:09.001Z,3.75
2022-10-23T05:31:39.258Z,4.13
2022-10-23T05:34:14.943Z,3.95
2022-10-23T05:39:18.022Z,3.80
2022-10-23T05:41:49.600Z,3.92
2022-10-23T05:44:24.910Z,3.90
2022-10-23T05:47:10.812Z,3.70
2022-10-23T05:49:59.432Z,3.35
2022-10-23T05:52:50.544Z,3.80
2022-10-23T05:55:36.900Z,3.88
2022-10-23T05:58:29.973Z,3.70
2022-10-23T06:01:09.176Z,3.88
2022-10-23T06:04:00.864Z,3.15
2022-10-23T06:06:50.699Z,3.05
2022-10-23T06:09:21.037Z,3.45
2022-10-23T06:11:52.821Z,2.92
2022-10-23T06:14:25.261Z,3.17
2022-10-23T06:16:56.718Z,2.35
2022-10-23T06:19:27.883Z,2.88
2022-10-23T06:22:00.002Z,2.60
2022-10-23T06:24:46.774Z,3.17
2022-10-23T06:27:22.195Z,2.88
2022-10-23T06:29:52.191Z,3.08
2022-10-23T06:32:22.869Z,2.33
2022-10-23T06:35:13.736Z,2.70
2022-10-23T06:37:43.834Z,2.38
2022-10-23T06:40:19.097Z,3.38
2022-10-23T06:43:01.172Z,3.10
2022-10-23T06:46:09.612Z,3.10
2022-10-23T06:48:58.175Z,2.63
2022-10-23T06:51:32.235Z,3.13
2022-10-23T06:54:02.366Z,3.47
2022-10-23T06:56:50.648Z,3.25
2022-10-23T06:59:25.009Z,3.50
2022-10-23T07:01:56.100Z,3.60
2022-10-23T07:04:26.845Z,2.65
2022-10-23T07:06:58.514Z,3.60
2022-10-23T10:30:30.655Z,3.08
2022-10-23T10:33:22.312Z,3.50
2022-10-23T10:35:53.272Z,2.80
2022-10-23T10:38:45.957Z,3.80
2022-10-23T10:41:52.250Z,3.42
2022-10-23T10:44:30.487Z,4.85
2022-10-23T10:47:18.481Z,5.72
2022-10-23T10:50:05.638Z,6.03
2022-10-23T10:53:05.630Z,4.43
2022-10-23T10:55:44.716Z,5.65
2022-10-23T10:58:35.455Z,6.55
2022-10-23T11:01:09.543Z,6.63
2022-10-23T11:03:50.332Z,6.32
2022-10-23T11:06:22.692Z,8.82
2022-10-23T11:08:58.127Z,7.32
2022-10-23T11:11:35.512Z,7.40
2022-10-23T11:14:05.653Z,7.40
2022-10-23T11:16:39.272Z,7.93
2022-10-23T11:19:14.392Z,6.65
2022-10-23T11:21:56.550Z,7.45
2022-10-23T11:24:36.329Z,9.15
2022-10-23T11:27:16.893Z,9.38
2022-10-23T11:30:12.228Z,9.50
2022-10-23T11:33:10.671Z,9.25
2022-10-23T11:35:43.561Z,10.13
2022-10-23T11:38:22.665Z,9.15
2022-10-23T11:40:56.195Z,10.25
2022-10-23T11:43:29.953Z,8.65
2022-10-23T11:46:00.389Z,9.02
2022-10-23T11:48:43.340Z,9.38
2022-10-23T11:51:28.452Z,8.07
2022-10-23T11:54:17.344Z,9.40
2022-10-23T11:57:03.738Z,9.55
2022-10-23T11:59:34.471Z,9.27
2022-10-23T12:02:24.525Z,10.32
2022-10-23T12:04:57.061Z,10.55
2022-10-23T12:07:34.146Z,10.52
2022-10-23T12:10:26.662Z,10.18
2022-10-23T12:13:00.934Z,10.87
2022-10-23T12:15:31.340Z,11.02
2022-10-23T12:18:30.482Z,9.98
2022-10-23T12:21:04.443Z,10.10
2022-10-23T12:23:52.719Z,9.30
2022-10-23T12:26:43.788Z,9.73
2022-10-23T12:29:26.213Z,9.90
2022-10-23T12:32:18.815Z,9.32
2022-10-23T12:34:56.113Z,9.63
2022-10-23T12:37:53.606Z,10.10
2022-10-23T12:40:28.386Z,10.05
2022-10-23T12:43:00.332Z,9.32
2022-10-23T12:45:40.375Z,9.65
2022-10-23T12:48:24.326Z,9.40
2022-10-23T12:50:56.099Z,9.63
2022-10-23T12:53:26.198Z,10.57
2022-10-23T12:58:35.345Z,10.02
2022-10-23T13:01:08.456Z,9.80
2022-10-23T13:03:38.533Z,10.85
2022-10-23T13:06:08.640Z,9.98
2022-10-23T13:08:47.159Z,10.35
2022-10-23T13:11:46.292Z,9.70
2022-10-23T13:14:44.523Z,10.60
2022-10-23T13:17:14.660Z,9.52
2022-10-23T13:19:44.667Z,8.63
2022-10-23T13:22:23.696Z,9.15
2022-10-23T13:24:53.800Z,9.85
2022-10-23T13:27:42.121Z,9.85
2022-10-23T13:30:33.597Z,8.65
2022-10-23T13:33:04.296Z,9.85
2022-10-23T13:35:34.977Z,9.50
2022-10-23T13:38:11.773Z,8.63
2022-10-23T13:40:41.794Z,9.45
2022-10-23T13:43:15.443Z,9.43
2022-10-23T13:45:45.414Z,10.20
2022-10-23T13:48:17.337Z,9.43
2022-10-23T13:50:47.365Z,10.70
2022-10-23T13:53:17.483Z,11.80
2022-10-23T13:55:50.114Z,10.95
2022-10-23T13:58:21.470Z,10.85
2022-10-23T14:00:51.643Z,11.38
2022-10-23T14:03:25.437Z,11.45
2022-10-23T14:05:55.729Z,12.07
2022-10-23T14:08:25.777Z,12.23
2022-10-23T14:10:55.811Z,11.85
2022-10-23T14:13:25.988Z,11.93
2022-10-23T14:15:56.895Z,11.13
2022-10-23T14:18:26.997Z,11.15
2022-10-23T14:20:57.248Z,11.98
2022-10-23T14:23:27.682Z,10.75
2022-10-23T14:26:06.514Z,11.43
2022-10-23T14:28:36.607Z,11.23
2022-10-23T14:31:17.006Z,11.65
2022-10-23T14:33:47.638Z,12.20
2022-10-23T14:38:57.470Z,11.30
2022-10-23T14:41:27.776Z,11.02
2022-10-23T14:43:57.793Z,11.07
2022-10-23T14:46:29.042Z,10.70
2022-10-23T14:49:02.300Z,11.43
2022-10-23T14:51:32.745Z,11.07
2022-10-23T14:54:06.774Z,12.27
2022-10-23T14:56:38.836Z,11.68
2022-10-23T14:59:09.665Z,12.67
2022-10-23T15:01:45.047Z,11.52
2022-10-23T15:04:15.853Z,12.23
2022-10-23T15:06:47.415Z,12.60
2022-10-23T15:09:17.561Z,12.80
2022-10-23T15:11:48.066Z,12.35
2022-10-23T15:14:18.326Z,12.80
2022-10-23T15:16:49.471Z,13.45
2022-10-23T15:19:19.595Z,15.18
2022-10-23T15:21:49.862Z,14.57
2022-10-23T15:24:19.878Z,14.13
2022-10-23T15:26:51.225Z,15.07
2022-10-23T15:29:21.845Z,14.85
2022-10-23T15:31:56.766Z,16.02
2022-10-23T15:34:29.036Z,16.15
2022-10-23T15:36:59.526Z,16.58
2022-10-23T15:39:34.880Z,16.52
2022-10-23T15:42:08.113Z,16.52
2022-10-23T15:44:38.277Z,16.98
2022-10-23T15:47:08.604Z,18.20
2022-10-23T15:49:39.368Z,16.85
2022-10-23T15:54:45.032Z,16.00
2022-10-23T15:57:15.850Z,15.80
2022-10-23T15:59:46.675Z,14.88
2022-10-23T16:02:16.834Z,17.23
2022-10-23T16:04:47.057Z,16.38
2022-10-23T16:07:17.093Z,15.63
2022-10-23T16:09:47.371Z,16.27
2022-10-23T16:12:18.312Z,15.80
2022-10-23T16:14:48.525Z,16.02
2022-10-23T16:17:19.724Z,17.00
2022-10-23T16:19:49.989Z,16.70
2022-10-23T16:22:20.099Z,17.27
2022-10-23T16:24:50.403Z,16.25
2022-10-23T16:27:20.516Z,17.23
2022-10-23T16:29:50.554Z,17.95
2022-10-23T16:32:20.596Z,17.73
2022-10-23T16:34:50.676Z,18.65
2022-10-23T16:37:23.234Z,19.02
2022-10-23T16:40:08.907Z,17.67
2022-10-23T16:42:58.060Z,17.35
2022-10-23T16:45:37.088Z,15.30
2022-10-23T16:50:41.576Z,13.57
2022-10-23T16:53:11.579Z,13.50
2022-10-23T16:55:42.644Z,13.40
2022-10-23T16:58:12.716Z,15.38
2022-10-23T17:00:42.665Z,14.93
2022-10-23T17:03:12.684Z,15.25
2022-10-23T17:05:42.685Z,15.68
2022-10-23T17:08:12.972Z,14.55
2022-10-23T17:10:43.153Z,15.60
2022-10-23T17:13:13.473Z,13.82
2022-10-23T17:15:43.589Z,13.95
2022-10-23T17:18:13.579Z,14.70
2022-10-23T17:20:43.516Z,14.38
2022-10-23T17:23:13.507Z,14.43
2022-10-23T17:25:43.454Z,14.48
2022-10-23T17:28:13.461Z,14.27
2022-10-23T17:30:43.507Z,14.32
2022-10-23T17:33:13.474Z,13.13
2022-10-23T17:35:43.418Z,13.35
2022-10-23T17:38:14.046Z,13.00
2022-10-23T17:43:18.675Z,13.18
2022-10-23T17:45:48.710Z,10.98
2022-10-23T17:48:18.656Z,12.25
2022-10-23T17:50:48.719Z,11.38
2022-10-23T17:53:19.170Z,10.77
2022-10-23T17:55:49.195Z,10.25
2022-10-23T17:58:19.171Z,9.73
2022-10-23T18:00:49.105Z,9.20
2022-10-23T18:03:19.824Z,8.63
2022-10-23T18:05:49.953Z,8.85
2022-10-23T18:08:19.902Z,8.35
2022-10-23T18:10:49.863Z,7.07
2022-10-23T18:13:19.688Z,6.93
2022-10-23T18:15:49.719Z,6.60
2022-10-23T18:18:19.905Z,6.25
2022-10-23T18:20:49.862Z,5.65
2022-10-23T18:23:19.813Z,7.13
2022-10-23T18:25:49.707Z,5.78
2022-10-23T18:28:20.925Z,6.05
2022-10-23T18:30:53.412Z,5.88
2022-10-23T18:33:26.115Z,6.05
2022-10-23T18:35:56.244Z,5.55
2022-10-23T18:38:26.701Z,6.22
2022-10-23T18:40:56.855Z,5.60
2022-10-23T18:43:42.766Z,5.55
2022-10-23T18:46:16.803Z,5.97
2022-10-23T18:51:21.154Z,5.50
2022-10-23T18:53:51.230Z,6.38
2022-10-23T18:56:24.375Z,5.55
2022-10-23T18:58:56.279Z,6.07
2022-10-23T19:01:27.924Z,6.00
2022-10-23T19:03:59.003Z,5.97
2022-10-23T19:06:29.246Z,6.00
2022-10-23T19:08:59.338Z,5.85
2022-10-23T19:11:29.949Z,5.82
2022-10-23T19:13:59.823Z,5.97
2022-10-23T19:16:43.894Z,5.63
2022-10-23T19:19:20.098Z,6.40
2022-10-23T19:21:50.222Z,5.75
2022-10-23T19:24:22.833Z,8.10
2022-10-23T19:26:52.998Z,6.30
2022-10-23T19:29:24.206Z,7.13
2022-10-23T19:31:54.264Z,5.72
2022-10-23T19:34:25.890Z,6.15
2022-10-23T19:36:56.129Z,6.00
2022-10-23T19:39:27.711Z,5.82
2022-10-23T19:41:58.839Z,5.45
2022-10-23T19:44:28.818Z,6.05
2022-10-23T19:46:58.833Z,5.50
2022-10-23T19:49:29.261Z,5.03
2022-10-23T19:51:59.510Z,5.95
2022-10-23T19:54:29.431Z,5.55
2022-10-23T19:56:59.395Z,5.85
2022-10-23T19:59:29.414Z,5.55
2022-10-23T20:01:59.531Z,5.35
2022-10-23T20:04:31.734Z,4.95
2022-10-23T20:07:01.757Z,4.93
2022-10-23T20:09:32.117Z,4.88
2022-10-23T20:12:02.528Z,4.68
2022-10-23T20:14:32.493Z,4.47
2022-10-23T20:17:02.752Z,4.38
2022-10-23T20:19:32.727Z,5.03
2022-10-23T20:22:02.758Z,3.67
2022-10-23T20:24:32.756Z,3.90
2022-10-23T20:27:02.795Z,3.55
2022-10-23T20:29:33.517Z,4.03
2022-10-23T20:32:03.554Z,3.75
2022-10-23T20:34:33.625Z,3.70
2022-10-23T20:37:03.506Z,3.90
2022-10-23T20:39:36.753Z,4.60
2022-10-23T20:42:06.755Z,3.38
2022-10-23T20:44:36.703Z,3.80
2022-10-23T20:47:06.730Z,3.67
2022-10-23T20:49:36.688Z,2.97
2022-10-23T20:52:06.731Z,3.33
2022-10-23T20:54:39.163Z,2.67
2022-10-23T20:57:09.124Z,3.05
2022-10-23T20:59:38.986Z,3.70
2022-10-23T21:02:09.094Z,3.80
2022-10-23T21:04:39.202Z,3.42
2022-10-23T21:07:11.642Z,3.10
2022-10-23T21:09:41.800Z,3.03
2022-10-23T21:12:11.809Z,3.05
2022-10-23T21:14:41.922Z,2.95
2022-10-23T21:17:17.585Z,2.45
2022-10-23T21:19:47.734Z,1.98
2022-10-23T21:22:17.718Z,2.50
2022-10-23T21:24:47.724Z,2.42
2022-10-23T21:27:18.366Z,1.92
2022-10-23T21:29:48.377Z,2.20
2022-10-23T21:32:18.256Z,2.53
2022-10-23T21:34:48.277Z,1.55
2022-10-23T21:37:18.240Z,1.80
2022-10-23T21:39:48.223Z,2.30
2022-10-23T21:42:18.458Z,1.98
2022-10-23T21:44:48.424Z,1.95
2022-10-23T21:47:18.531Z,1.50
2022-10-23T21:49:48.511Z,1.52
2022-10-23T21:52:19.848Z,1.95
2022-10-23T21:54:53.923Z,1.38
2022-10-23T21:57:23.940Z,1.65
2022-10-23T22:00:02.646Z,1.92
2022-10-23T22:02:42.641Z,2.17
2022-10-23T22:05:13.056Z,1.70
2022-10-23T22:07:43.243Z,2.03
2022-10-23T22:10:13.473Z,2.10
2022-10-23T22:12:43.470Z,1.35
2022-10-23T22:15:13.460Z,1.42
2022-10-23T22:17:44.030Z,2.13
2022-10-23T22:20:14.216Z,2.22
2022-10-23T22:22:44.158Z,1.50
2022-10-23T22:25:14.063Z,1.38
2022-10-23T22:27:44.304Z,1.63
2022-10-23T22:30:14.785Z,1.52
2022-10-23T22:32:44.850Z,1.45
2022-10-23T22:35:14.991Z,1.45
2022-10-23T22:37:44.932Z,0.98
2022-10-23T22:40:15.039Z,1.10
2022-10-23T22:42:45.536Z,1.20
2022-10-23T22:45:15.652Z,1.50
2022-10-23T22:47:45.669Z,0.90
2022-10-23T22:50:15.756Z,1.27
2022-10-23T22:52:46.014Z,0.95
2022-10-23T22:55:16.108Z,1.20
2022-10-23T22:57:46.356Z,1.13
2022-10-23T23:00:17.032Z,1.33
2022-10-23T23:02:46.999Z,0.93
2022-10-23T23:05:17.112Z,1.02
2022-10-23T23:07:47.194Z,1.20
2022-10-23T23:10:17.392Z,1.02
2022-10-23T23:12:47.369Z,1.48
2022-10-23T23:15:17.349Z,1.38
2022-10-23T23:17:47.344Z,0.93
2022-10-23T23:20:17.400Z,1.10
2022-10-23T23:22:47.469Z,1.20
2022-10-23T23:25:17.488Z,1.40
2022-10-23T23:27:48.810Z,1.55
2022-10-23T23:30:18.757Z,1.83
2022-10-23T23:32:54.772Z,1.60
2022-10-23T23:35:24.746Z,1.92
2022-10-23T23:37:54.688Z,1.60
2022-10-23T23:40:24.680Z,1.73
2022-10-23T23:42:54.596Z,2.22
2022-10-23T23:45:24.599Z,1.98
2022-10-23T23:47:54.573Z,1.70
2022-10-23T23:50:24.459Z,1.73
2022-10-23T23:52:54.403Z,3.70
2022-10-23T23:55:24.292Z,2.03
2022-10-23T23:57:54.347Z,1.92
